Koosah.INFO

KSEA Weather Observatons

This table shows observations taken by aircraft in the Seattle, WA, US area since 2018-09-26T05:51:19-0700. By default, it is sorted by time observed in ascending order. Click on a column heading to sort by that column instead. Click again on the same column heading to sort in descending order.

Show observations taken in the last:

Return to main page.

Time Observed Time Received Altitude (ft) Latitude Longitude Temperature (˚C) Wind Direction Wind speed (kn) Frequency (MHz) Source
2018-09-26T06:18:00-0700 2018-09-26T06:19:48-0700 1585 47.4892 -122.3111 10.7 8 12 130.025 .N303AS
2018-09-26T06:18:00-0700 2018-09-26T06:19:48-0700 1711 47.4942 -122.3109 10.7 8 11 130.025 .N303AS
2018-09-26T06:19:00-0700 2018-09-26T06:19:48-0700 1852 47.4995 -122.3109 12.0 28 8 130.025 .N303AS
2018-09-26T06:19:00-0700 2018-09-26T06:20:12-0700 2536 47.5186 -122.3106 13.7 43 5 130.025 .N303AS
2018-09-26T06:19:00-0700 2018-09-26T06:20:12-0700 2736 47.5242 -122.3106 13.5 42 6 130.025 .N303AS
2018-09-26T06:19:00-0700 2018-09-26T06:20:12-0700 2907 47.5299 -122.3104 13.2 56 4 130.025 .N303AS
2018-09-26T06:20:00-0700 2018-09-26T06:21:24-0700 4559 47.5847 -122.3063 13.2 92 5 130.025 .N303AS
2018-09-26T06:20:00-0700 2018-09-26T06:21:24-0700 5404 47.6025 -122.2848 12.5 299 5 130.025 .N303AS
2018-09-26T06:21:00-0700 2018-09-26T06:21:24-0700 6273 47.6083 -122.2501 12.0 302 10 130.025 .N303AS
2018-09-26T06:23:00-0700 2018-09-26T06:24:47-0700 12052 47.403 -122.1459 3.7 350 32 130.025 .N303AS
2018-09-26T06:24:00-0700 2018-09-26T06:24:47-0700 12470 47.3706 -122.1389 3.2 345 33 130.025 .N303AS
2018-09-26T06:24:00-0700 2018-09-26T06:24:47-0700 12869 47.3368 -122.132 2.7 346 34 130.025 .N303AS
2018-09-26T06:24:00-0700 2018-09-26T06:28:51-0700 26001 47.7503 -119.7434 -27.0 316 52 130.025 .N320AS
2018-09-26T06:26:00-0700 2018-09-26T06:28:51-0700 26001 47.7735 -120.0465 -27.0 316 50 130.025 .N320AS
2018-09-26T06:28:00-0700 2018-09-26T06:28:51-0700 26001 47.7961 -120.3505 -27.0 315 48 130.025 .N320AS
2018-09-26T06:28:00-0700 2018-09-26T06:38:47-0700 26003 47.7967 -120.3581 -27.0 315 48 130.025 .N320AS
2018-09-26T06:30:00-0700 2018-09-26T06:38:47-0700 26001 47.8183 -120.663 -27.0 315 46 130.025 .N320AS
2018-09-26T06:32:00-0700 2018-09-26T06:38:47-0700 26003 47.8394 -120.9697 -27.0 (missing) (missing) 130.025 .N320AS
2018-09-26T06:33:00-0700 2018-09-26T06:42:18-0700 25974 47.8439 -121.0365 -27.0 312 41 130.025 .N320AS
2018-09-26T06:34:00-0700 2018-09-26T06:42:18-0700 23896 47.854 -121.1893 -22.0 308 42 130.025 .N320AS
2018-09-26T06:35:00-0700 2018-09-26T06:42:18-0700 21748 47.8634 -121.3385 -16.0 (missing) (missing) 130.025 .N320AS
2018-09-26T06:36:00-0700 2018-09-26T06:42:25-0700 19632 47.8727 -121.484 -11.2 324 38 130.025 .N320AS
2018-09-26T06:37:00-0700 2018-09-26T06:42:25-0700 17555 47.8816 -121.6263 -6.5 325 33 130.025 .N320AS
2018-09-26T06:38:00-0700 2018-09-26T06:42:25-0700 15755 47.849 -121.7537 -3.0 335 32 130.025 .N320AS
2018-09-26T06:40:00-0700 2018-09-26T06:42:30-0700 12704 47.7045 -121.9501 3.5 343 32 130.025 .N320AS
2018-09-26T06:41:00-0700 2018-09-26T06:42:30-0700 11067 47.6334 -122.0457 5.2 338 20 130.025 .N320AS
2018-09-26T06:42:00-0700 2018-09-26T06:42:30-0700 10118 47.5668 -122.1341 6.7 330 24 130.025 .N320AS
2018-09-26T07:11:00-0700 2018-09-26T07:12:50-0700 4558 47.5828 -122.3392 14.0 356 7 130.025 .N305AS
2018-09-26T07:12:00-0700 2018-09-26T07:12:50-0700 5543 47.6008 -122.3621 13.0 330 10 130.025 .N305AS
2018-09-26T07:12:00-0700 2018-09-26T07:12:50-0700 6403 47.6114 -122.3937 12.2 338 15 130.025 .N305AS
2018-09-26T07:12:00-0700 2018-09-26T07:14:25-0700 6522 47.6121 -122.3992 12.2 336 13 130.025 .N305AS
2018-09-26T07:12:00-0700 2018-09-26T07:14:25-0700 7493 47.6149 -122.4357 10.0 338 19 130.025 .N305AS
2018-09-26T07:12:00-0700 2018-09-26T07:18:16-0700 17623 47.4236 -121.3191 -6.5 329 32 130.025 .N409AS
2018-09-26T07:13:00-0700 2018-09-26T07:14:25-0700 8432 47.619 -122.4716 8.0 (missing) (missing) 130.025 .N305AS
2018-09-26T07:13:00-0700 2018-09-26T07:18:16-0700 18070 47.4228 -121.2622 -7.2 327 37 130.025 .N409AS
2018-09-26T07:13:00-0700 2018-09-26T07:18:16-0700 18542 47.4218 -121.2047 -8.0 (missing) (missing) 130.025 .N409AS
2018-09-26T07:14:00-0700 2018-09-26T07:16:12-0700 10349 47.6265 -122.5912 6.7 336 24 130.025 .N305AS
2018-09-26T07:14:00-0700 2018-09-26T07:16:12-0700 10645 47.6293 -122.6336 6.7 338 22 130.025 .N305AS
2018-09-26T07:14:00-0700 2018-09-26T07:16:12-0700 11138 47.6372 -122.6759 5.0 (missing) (missing) 130.025 .N305AS
2018-09-26T07:15:00-0700 2018-09-26T07:16:18-0700 11651 47.6598 -122.7051 5.5 350 24 130.025 .N305AS
2018-09-26T07:15:00-0700 2018-09-26T07:16:18-0700 12838 47.6846 -122.7296 3.2 335 26 130.025 .N305AS
2018-09-26T07:15:00-0700 2018-09-26T07:16:18-0700 13651 47.7081 -122.7564 1.0 338 26 130.025 .N305AS
2018-09-26T07:17:00-0700 2018-09-26T07:18:43-0700 23265 47.4089 -120.5478 -20.2 315 46 130.025 .N409AS
2018-09-26T07:17:00-0700 2018-09-26T07:18:43-0700 23621 47.4075 -120.4843 -20.7 315 46 130.025 .N409AS
2018-09-26T07:17:00-0700 2018-09-26T07:18:43-0700 23976 47.406 -120.4202 -21.5 316 47 130.025 .N409AS
2018-09-26T07:18:00-0700 2018-09-26T07:19:32-0700 19003 47.9127 -122.973 -9.5 313 26 130.025 .N305AS
2018-09-26T07:18:00-0700 2018-09-26T07:19:32-0700 19577 47.9393 -123.0031 -11.0 313 26 130.025 .N305AS
2018-09-26T07:19:00-0700 2018-09-26T07:21:53-0700 5838 47.1007 -122.367 13.5 344 10 130.025 .N317AS
2018-09-26T07:19:00-0700 2018-09-26T07:19:32-0700 20353 47.9671 -123.0333 -12.5 310 27 130.025 .N305AS
2018-09-26T07:20:00-0700 2018-09-26T07:21:53-0700 5146 47.166 -122.3332 14.2 329 13 130.025 .N317AS
2018-09-26T07:20:00-0700 2018-09-26T07:21:25-0700 22501 48.0562 -123.128 -18.7 300 30 130.025 .N305AS
2018-09-26T07:20:00-0700 2018-09-26T07:21:25-0700 23074 48.0847 -123.1589 -20.2 297 30 130.025 .N305AS
2018-09-26T07:20:00-0700 2018-09-26T07:21:25-0700 23598 48.1135 -123.1903 -21.7 293 29 130.025 .N305AS
2018-09-26T07:21:00-0700 2018-09-26T07:21:53-0700 4123 47.229 -122.3198 15.2 336 6 130.025 .N317AS
2018-09-26T07:23:00-0700 2018-09-26T07:24:32-0700 27497 48.3513 -123.4501 -30.0 313 27 130.025 .N305AS
2018-09-26T07:23:00-0700 2018-09-26T07:24:32-0700 27960 48.3824 -123.4841 -31.5 310 28 130.025 .N305AS
2018-09-26T07:24:00-0700 2018-09-26T07:24:32-0700 28401 48.4134 -123.5184 -32.5 305 30 130.025 .N305AS
2018-09-26T07:27:00-0700 2018-09-26T07:28:10-0700 1528 47.4751 -122.3109 10.2 23 15 130.025 .N528AS
2018-09-26T07:27:00-0700 2018-09-26T07:28:10-0700 1673 47.4798 -122.3107 10.5 23 14 130.025 .N528AS
2018-09-26T07:27:00-0700 2018-09-26T07:28:10-0700 1803 47.4846 -122.3106 11.0 (missing) (missing) 130.025 .N528AS
2018-09-26T07:27:00-0700 2018-09-26T07:29:27-0700 32358 48.7326 -123.8727 -43.2 304 30 130.025 .N305AS
2018-09-26T07:27:00-0700 2018-09-26T07:29:27-0700 32745 48.7645 -123.9084 -44.2 304 29 130.025 .N305AS
2018-09-26T07:28:00-0700 2018-09-26T07:29:56-0700 3066 47.5241 -122.3099 13.2 61 8 130.025 .N528AS
2018-09-26T07:28:00-0700 2018-09-26T07:29:56-0700 3757 47.546 -122.3099 13.7 71 3 130.025 .N528AS
2018-09-26T07:28:00-0700 2018-09-26T07:29:56-0700 4709 47.5694 -122.3104 13.0 (missing) (missing) 130.025 .N528AS
2018-09-26T07:28:00-0700 2018-09-26T07:29:27-0700 33100 48.7966 -123.9441 -45.0 (missing) (missing) 130.025 .N305AS
2018-09-26T07:32:00-0700 2018-09-26T07:33:27-0700 13762 47.3881 -122.1113 1.5 336 30 130.025 .N528AS
2018-09-26T07:32:00-0700 2018-09-26T07:33:27-0700 14606 47.3529 -122.1053 -0.5 339 28 130.025 .N528AS
2018-09-26T07:33:00-0700 2018-09-26T07:33:27-0700 15486 47.317 -122.0994 -2.2 334 27 130.025 .N528AS
2018-09-26T07:34:00-0700 2018-09-26T07:36:39-0700 19578 47.1402 -122.0708 -10.5 322 27 130.025 .N528AS
2018-09-26T07:35:00-0700 2018-09-26T07:36:39-0700 20366 47.1021 -122.0648 -13.0 320 29 130.025 .N528AS
2018-09-26T07:35:00-0700 2018-09-26T07:36:39-0700 21178 47.0638 -122.0586 -14.0 (missing) (missing) 130.025 .N528AS
2018-09-26T07:35:00-0700 2018-09-26T07:36:56-0700 21969 47.0252 -122.0524 -16.2 298 33 130.025 .N528AS
2018-09-26T07:36:00-0700 2018-09-26T07:36:56-0700 22710 46.9862 -122.0464 -18.0 303 32 130.025 .N528AS
2018-09-26T07:36:00-0700 2018-09-26T07:36:56-0700 23408 46.9469 -122.0402 -19.7 306 31 130.025 .N528AS
2018-09-26T07:37:00-0700 2018-09-26T07:38:51-0700 2500 47.514 -122.31 12.0 39 7 130.025 .N390DA
2018-09-26T07:39:00-0700 2018-09-26T07:41:37-0700 29283 46.5348 -121.9681 -35.2 301 37 130.025 .N528AS
2018-09-26T07:40:00-0700 2018-09-26T07:41:37-0700 29724 46.4919 -121.9578 -36.2 304 37 130.025 .N528AS
2018-09-26T07:40:00-0700 2018-09-26T07:41:37-0700 30172 46.4486 -121.9473 -37.0 (missing) (missing) 130.025 .N528AS
2018-09-26T07:41:00-0700 2018-09-26T07:41:41-0700 5090 47.349 -122.184 13.0 327 13 130.025 .N949AN
2018-09-26T07:41:00-0700 2018-09-26T07:41:41-0700 6210 47.364 -122.182 12.0 4 14 130.025 .N949AN
2018-09-26T07:41:00-0700 2018-09-26T07:41:41-0700 7270 47.377 -122.172 10.0 332 12 130.025 .N949AN
2018-09-26T07:41:00-0700 2018-09-26T07:41:41-0700 8150 47.384 -122.15 9.0 312 14 130.025 .N949AN
2018-09-26T07:41:00-0700 2018-09-26T07:41:41-0700 8950 47.38 -122.125 9.0 309 29 130.025 .N949AN
2018-09-26T07:43:00-0700 2018-09-26T07:43:11-0700 9820 47.371 -122.101 7.0 329 31 130.025 .N949AN
2018-09-26T07:43:00-0700 2018-09-26T07:43:11-0700 10790 47.361 -122.078 6.0 336 27 130.025 .N949AN
2018-09-26T07:43:00-0700 2018-09-26T07:43:11-0700 11800 47.351 -122.055 5.0 346 33 130.025 .N949AN
2018-09-26T07:43:00-0700 2018-09-26T07:43:11-0700 12630 47.341 -122.031 3.0 341 33 130.025 .N949AN
2018-09-26T07:43:00-0700 2018-09-26T07:43:11-0700 13390 47.33 -122.007 1.0 338 33 130.025 .N949AN